Time;durP1;ratioP1;P1;durP2;ratioP2;P2;SDS_P1;SDS_P2;PMS_P1;PMS_P2;Temp;Humidity;BMP_temperature;BMP_pressure;BME280_temperature;BME280_humidity;BME280_pressure;Samples;Min_cycle;Max_cycle;Signal;HPM_P1;HPM_P2
2022/08/24 00:00:19;;;;;;;24.13;19.33;;;;;;;20.22;89.33;101525.81;6186063;23;20011;-89
2022/08/24 00:02:48;;;;;;;26.83;19.50;;;;;;;20.20;89.80;101525.25;6186611;23;20446;-89
2022/08/24 00:05:24;;;;;;;25.05;19.13;;;;;;;20.21;90.04;101519.47;6186604;23;20443;-90
2022/08/24 00:07:50;;;;;;;23.13;19.45;;;;;;;20.19;89.92;101516.13;6184801;23;20016;-89
2022/08/24 00:10:16;;;;;;;25.67;18.50;;;;;;;20.17;90.61;101523.84;6214885;23;20016;-89
2022/08/24 00:12:42;;;;;;;26.33;18.98;;;;;;;20.16;91.25;101524.94;6216490;23;20005;-89
2022/08/24 00:15:10;;;;;;;24.47;18.50;;;;;;;20.13;91.31;101525.47;6190014;23;20008;-89
2022/08/24 00:17:39;;;;;;;23.13;19.33;;;;;;;20.12;91.13;101535.66;6190157;23;20031;-89
2022/08/24 00:20:08;;;;;;;26.92;20.92;;;;;;;20.08;91.48;101540.03;6216101;23;20039;-89
2022/08/24 00:22:39;;;;;;;22.33;19.38;;;;;;;20.05;91.07;101539.69;6190449;23;20047;-89
2022/08/24 00:25:10;;;;;;;27.77;20.98;;;;;;;20.01;91.59;101542.16;6216018;23;20009;-89
2022/08/24 00:27:38;;;;;;;27.33;19.57;;;;;;;20.00;92.04;101526.72;6190246;23;20009;-89
2022/08/24 00:30:05;;;;;;;24.65;20.20;;;;;;;20.00;91.83;101543.25;6189691;23;20008;-89
2022/08/24 00:32:31;;;;;;;26.55;20.35;;;;;;;19.97;91.65;101533.63;6189701;23;20009;-89
2022/08/24 00:34:57;;;;;;;26.65;20.65;;;;;;;19.95;92.08;101543.22;6189012;23;20342;-89
2022/08/24 00:37:30;;;;;;;27.67;20.90;;;;;;;19.92;91.68;101544.56;6189359;23;20059;-89
2022/08/24 00:39:56;;;;;;;32.65;21.40;;;;;;;19.91;92.44;101545.66;6189846;23;20005;-90
2022/08/24 00:42:23;;;;;;;26.38;20.33;;;;;;;19.88;92.34;101548.94;6216239;23;20009;-90
2022/08/24 00:44:48;;;;;;;25.83;20.52;;;;;;;19.87;92.57;101549.19;6189395;23;20008;-89
2022/08/24 00:47:30;;;;;;;27.33;20.40;;;;;;;19.84;92.46;101546.97;6165892;23;20012;-90
2022/08/24 00:50:00;;;;;;;25.58;20.13;;;;;;;19.83;92.47;101548.91;6216394;23;20004;-89
2022/08/24 00:52:37;;;;;;;27.17;19.90;;;;;;;19.79;92.30;101539.50;6189695;23;20005;-89
2022/08/24 00:55:17;;;;;;;26.25;21.08;;;;;;;19.74;92.90;101547.69;6189697;23;20011;-89
2022/08/24 00:57:48;;;;;;;33.72;23.38;;;;;;;19.66;93.80;101543.44;6214681;23;20008;-89
2022/08/24 01:00:30;;;;;;;31.05;23.40;;;;;;;19.63;94.41;101538.47;6190076;23;20013;-89
2022/08/24 01:03:00;;;;;;;34.85;23.00;;;;;;;19.59;94.54;101542.81;6189861;23;20009;-89
2022/08/24 01:05:26;;;;;;;32.13;22.57;;;;;;;19.61;94.60;101551.66;6189742;23;20000;-89
2022/08/24 01:07:51;;;;;;;31.17;23.63;;;;;;;19.58;95.02;101552.19;6189518;23;20004;-89
2022/08/24 01:10:23;;;;;;;28.97;22.67;;;;;;;19.56;94.96;101552.44;6164877;23;20075;-89
2022/08/24 01:12:53;;;;;;;33.33;23.05;;;;;;;19.53;95.52;101543.88;6190467;23;20086;-89
2022/08/24 01:15:19;;;;;;;34.33;24.77;;;;;;;19.49;95.48;101545.47;6189689;23;20477;-89
2022/08/24 01:20:32;;;;;;;30.10;22.58;;;;;;;19.48;95.74;101552.06;6218274;23;20027;-89
2022/08/24 01:23:32;;;;;;;32.60;25.03;;;;;;;19.45;95.41;101548.72;6167019;23;20040;-89
2022/08/24 01:26:01;;;;;;;27.95;22.27;;;;;;;19.42;95.45;101554.75;6111944;23;20013;-89
2022/08/24 01:28:29;;;;;;;33.80;24.65;;;;;;;19.38;95.80;101550.03;6191694;23;20052;-89
2022/08/24 01:30:55;;;;;;;31.52;23.42;;;;;;;19.38;95.73;101550.03;6218679;23;20120;-89
2022/08/24 01:33:24;;;;;;;28.95;23.00;;;;;;;19.33;96.39;101550.81;6190984;23;20008;-89
2022/08/24 01:35:56;;;;;;;34.03;23.30;;;;;;;19.31;96.48;101546.66;6192342;23;20104;-89
2022/08/24 01:38:25;;;;;;;33.65;24.52;;;;;;;19.32;96.80;101548.31;6191791;23;20005;-89
2022/08/24 01:40:56;;;;;;;32.50;24.80;;;;;;;19.30;97.54;101539.50;6190934;23;20005;-89
2022/08/24 01:43:23;;;;;;;36.80;25.98;;;;;;;19.27;97.67;101535.34;6191001;23;20039;-89
2022/08/24 01:45:49;;;;;;;31.45;24.88;;;;;;;19.20;97.01;101534.69;6217745;23;20007;-89
2022/08/24 01:48:15;;;;;;;32.40;24.70;;;;;;;19.16;97.36;101528.84;6167253;23;20016;-89
2022/08/24 01:50:40;;;;;;;32.95;25.30;;;;;;;19.12;97.76;101530.47;6217534;23;20011;-89
2022/08/24 01:53:07;;;;;;;32.87;24.37;;;;;;;19.08;97.55;101530.16;6191175;23;20346;-89
2022/08/24 01:55:33;;;;;;;30.10;24.13;;;;;;;19.08;97.76;101538.41;6190906;23;20246;-89
2022/08/24 01:58:04;;;;;;;35.90;25.65;;;;;;;19.09;98.63;101540.06;6191374;23;20012;-89
2022/08/24 02:00:30;;;;;;;35.60;25.65;;;;;;;19.08;99.02;101538.41;6191192;23;20091;-89
2022/08/24 02:02:56;;;;;;;35.72;26.33;;;;;;;19.02;99.03;101536.69;6192138;23;20047;-89
2022/08/24 02:05:23;;;;;;;31.50;23.90;;;;;;;19.02;99.39;101538.59;6191032;23;20397;-89
2022/08/24 02:07:49;;;;;;;34.03;25.92;;;;;;;19.03;100.00;101527.34;6166451;23;20012;-89
2022/08/24 02:10:15;;;;;;;39.30;28.00;;;;;;;19.03;100.00;101532.84;6186059;23;20386;-89
2022/08/24 02:12:45;;;;;;;32.30;25.67;;;;;;;19.02;100.00;101539.44;6186813;23;20047;-88
2022/08/24 02:15:12;;;;;;;34.67;25.77;;;;;;;18.99;99.85;101545.44;6187675;23;20427;-88
2022/08/24 02:17:37;;;;;;;33.03;24.85;;;;;;;18.98;99.45;101538.28;6185626;23;20005;-89
2022/08/24 02:20:05;;;;;;;35.85;26.52;;;;;;;18.95;100.00;101537.97;6186025;23;20068;-89
2022/08/24 02:22:31;;;;;;;32.83;25.53;;;;;;;18.97;100.00;101541.28;6187083;23;20001;-89
2022/08/24 02:24:57;;;;;;;37.72;26.10;;;;;;;18.97;99.63;101542.13;6185844;23;20009;-89
2022/08/24 02:27:22;;;;;;;34.70;25.33;;;;;;;18.98;99.63;101549.25;6185541;23;20028;-89
2022/08/24 02:29:47;;;;;;;32.03;25.02;;;;;;;18.96;99.77;101551.44;6185472;23;20313;-88
2022/08/24 02:32:13;;;;;;;34.73;24.43;;;;;;;18.98;99.41;101560.25;6185831;23;20009;-89
2022/08/24 02:34:42;;;;;;;33.70;25.40;;;;;;;18.92;99.41;101556.63;6185472;23;20023;-89
2022/08/24 02:37:10;;;;;;;34.17;24.52;;;;;;;18.93;99.58;101560.22;6185664;23;20089;-88
2022/08/24 02:39:36;;;;;;;33.88;25.33;;;;;;;18.89;99.37;101557.13;6185683;23;20457;-88
2022/08/24 02:42:01;;;;;;;31.40;24.73;;;;;;;18.89;99.29;101553.56;6185256;23;20091;-88
2022/08/24 02:44:28;;;;;;;34.47;24.77;;;;;;;18.88;99.31;101565.63;6160596;23;20020;-89
2022/08/24 02:46:53;;;;;;;31.27;24.13;;;;;;;18.86;98.81;101554.06;6185490;23;20494;-88
2022/08/24 02:49:20;;;;;;;28.70;23.67;;;;;;;18.85;99.10;101555.09;6161504;23;20009;-89
2022/08/24 02:51:46;;;;;;;32.33;23.95;;;;;;;18.84;99.33;101561.69;6161527;23;20344;-89
2022/08/24 02:54:16;;;;;;;30.83;23.67;;;;;;;18.79;99.00;101554.19;6186133;23;20009;-89
2022/08/24 02:56:42;;;;;;;30.30;23.27;;;;;;;18.78;99.00;101555.31;6185863;23;20332;-89
2022/08/24 02:59:10;;;;;;;29.60;23.15;;;;;;;18.78;98.69;101563.56;6185453;23;20064;-89
2022/08/24 03:01:49;;;;;;;29.40;23.42;;;;;;;18.76;99.08;101551.97;6185294;23;20088;-89
2022/08/24 03:04:18;;;;;;;26.77;22.17;;;;;;;18.75;99.29;101556.63;6186200;23;20005;-88
2022/08/24 03:06:43;;;;;;;33.10;24.38;;;;;;;18.75;98.68;101555.81;6160372;23;20092;-88
2022/08/24 03:09:09;;;;;;;32.63;24.70;;;;;;;18.69;98.99;101557.66;6160152;23;20421;-89
2022/08/24 03:11:38;;;;;;;34.70;23.95;;;;;;;18.59;98.97;101550.09;6185471;23;20084;-89
2022/08/24 03:14:03;;;;;;;32.08;23.17;;;;;;;18.59;99.78;101552.81;6185428;23;20009;-89
2022/08/24 03:16:30;;;;;;;32.10;24.35;;;;;;;18.58;100.00;101555.84;6186241;23;20016;-88
2022/08/24 03:18:58;;;;;;;29.77;22.47;;;;;;;18.55;99.66;101550.84;6185853;23;20008;-89
2022/08/24 03:21:27;;;;;;;30.95;24.23;;;;;;;18.56;99.36;101549.75;6186904;23;20005;-88
2022/08/24 03:23:53;;;;;;;29.20;22.77;;;;;;;18.56;99.35;101553.34;6185312;23;20055;-89
2022/08/24 03:26:19;;;;;;;28.97;21.87;;;;;;;18.52;99.05;101554.91;6185129;23;20009;-89
2022/08/24 03:28:47;;;;;;;30.73;23.13;;;;;;;18.44;98.90;101549.00;6185240;23;20013;-89
2022/08/24 03:31:12;;;;;;;28.15;23.20;;;;;;;18.45;99.84;101551.50;6186930;23;20438;-88
2022/08/24 03:33:41;;;;;;;28.43;22.87;;;;;;;18.45;100.00;101550.69;6185252;23;20000;-88
2022/08/24 03:36:09;;;;;;;31.85;22.60;;;;;;;18.41;100.00;101548.44;6185188;23;20436;-88
2022/08/24 03:38:40;;;;;;;31.17;23.33;;;;;;;18.41;100.00;101544.88;6161123;23;20017;-88
2022/08/24 03:41:06;;;;;;;31.03;23.77;;;;;;;18.39;100.00;101536.88;6161870;23;20013;-88
2022/08/24 03:43:47;;;;;;;30.77;23.52;;;;;;;18.35;100.00;101540.34;6185233;23;20032;-88
2022/08/24 03:46:21;;;;;;;33.13;23.83;;;;;;;18.30;100.00;101538.38;6186271;23;20012;-89
2022/08/24 03:48:48;;;;;;;30.10;23.13;;;;;;;18.32;100.00;101541.72;6185513;23;20009;-89
2022/08/24 03:51:16;;;;;;;31.23;23.60;;;;;;;18.29;100.00;101544.13;6183915;23;20300;-89
2022/08/24 03:53:45;;;;;;;27.63;22.23;;;;;;;18.27;100.00;101552.59;6185201;23;20006;-89
2022/08/24 03:56:13;;;;;;;27.98;22.25;;;;;;;18.25;100.00;101557.53;6186265;23;20027;-89
2022/08/24 03:58:42;;;;;;;28.13;21.98;;;;;;;18.26;100.00;101553.69;6185082;23;20008;-89
2022/08/24 04:01:08;;;;;;;27.40;21.07;;;;;;;18.24;100.00;101559.41;6185053;23;20037;-89
2022/08/24 04:03:39;;;;;;;28.85;21.95;;;;;;;18.24;100.00;101555.84;6160379;23;20012;-89
2022/08/24 04:06:08;;;;;;;26.73;21.40;;;;;;;18.24;100.00;101558.59;6186031;23;20005;-89
2022/08/24 04:08:34;;;;;;;27.53;21.37;;;;;;;18.21;100.00;101556.34;6185246;23;20469;-89
2022/08/24 04:11:01;;;;;;;29.13;20.67;;;;;;;18.21;100.00;101564.59;6185282;23;20013;-89
2022/08/24 04:13:30;;;;;;;27.10;21.20;;;;;;;18.16;100.00;101559.84;6184999;23;20496;-89
2022/08/24 04:16:02;;;;;;;27.20;22.30;;;;;;;18.18;100.00;101560.44;6185315;23;20458;-89
2022/08/24 04:18:28;;;;;;;28.60;22.30;;;;;;;18.13;99.98;101559.50;6185073;23;20005;-89
2022/08/24 04:20:53;;;;;;;34.87;21.30;;;;;;;18.14;100.00;101564.75;6184876;23;20008;-89
2022/08/24 04:23:22;;;;;;;28.80;21.00;;;;;;;18.13;99.94;101565.00;6184521;23;20016;-89
2022/08/24 04:25:47;;;;;;;27.63;21.88;;;;;;;18.12;100.00;101560.59;6184877;23;20016;-89
2022/08/24 04:28:18;;;;;;;27.63;22.02;;;;;;;18.10;100.00;101562.75;6185169;23;20044;-89
2022/08/24 04:30:58;;;;;;;31.35;22.00;;;;;;;18.10;100.00;101565.50;6185766;23;20012;-89
2022/08/24 04:33:26;;;;;;;26.77;20.83;;;;;;;18.08;99.72;101571.22;6184709;23;20008;-89
2022/08/24 04:35:51;;;;;;;28.92;21.90;;;;;;;18.08;99.74;101573.97;6184054;23;20024;-89
2022/08/24 04:38:18;;;;;;;28.97;21.53;;;;;;;18.08;99.83;101563.00;6184729;23;20332;-89
2022/08/24 04:40:47;;;;;;;33.10;23.88;;;;;;;18.08;100.00;101563.00;6159961;23;20092;-89
2022/08/24 04:44:02;;;;;;;28.30;22.60;;;;;;;18.10;99.64;101565.50;6184581;23;20029;-89
2022/08/24 04:46:28;;;;;;;29.63;21.98;;;;;;;18.06;99.68;101567.91;6131525;23;20519;-88
2022/08/24 04:48:56;;;;;;;30.10;23.67;;;;;;;18.05;99.79;101571.72;6159769;23;20009;-89
2022/08/24 04:51:22;;;;;;;35.20;22.57;;;;;;;18.06;99.39;101571.47;6160152;23;20006;-89
2022/08/24 04:53:53;;;;;;;27.83;21.23;;;;;;;18.03;99.18;101568.41;6185968;23;20079;-89
2022/08/24 04:56:23;;;;;;;28.05;21.85;;;;;;;17.99;100.00;101570.81;6188342;23;20012;-89
2022/08/24 04:58:53;;;;;;;31.13;22.53;;;;;;;17.98;100.00;101579.28;6187704;23;20009;-87
2022/08/24 05:01:27;;;;;;;34.83;23.52;;;;;;;18.00;100.00;101577.97;6187824;23;20008;-88
2022/08/24 05:03:54;;;;;;;33.42;22.00;;;;;;;18.00;100.00;101580.72;6188295;23;20091;-88
2022/08/24 05:06:31;;;;;;;31.42;22.40;;;;;;;18.03;100.00;101579.41;6187575;23;20088;-88
2022/08/24 05:09:00;;;;;;;33.65;21.90;;;;;;;18.05;100.00;101571.72;6187411;23;20017;-88
2022/08/24 05:11:52;;;;;;;29.80;22.23;;;;;;;18.09;100.00;101577.59;6188082;23;20498;-88
2022/08/24 05:14:38;;;;;;;33.28;22.80;;;;;;;18.13;100.00;101578.72;6189110;23;20012;-89
2022/08/24 05:17:14;;;;;;;;;;;;;;;;;;;;;
2022/08/24 05:19:40;;;;;;;30.42;22.02;;;;;;;18.20;100.00;101587.63;6189269;23;20079;-89
2022/08/24 05:22:08;;;;;;;30.17;23.23;;;;;;;18.22;100.00;101580.81;6189425;23;20043;-89
2022/08/24 05:24:34;;;;;;;32.88;22.98;;;;;;;18.26;100.00;101586.63;6163978;23;20009;-89
2022/08/24 05:26:59;;;;;;;30.07;21.47;;;;;;;18.26;100.00;101581.16;6138115;23;20348;-89
2022/08/24 05:29:25;;;;;;;29.17;22.67;;;;;;;18.33;100.00;101581.81;6188994;23;20001;-87
2022/08/24 05:32:00;;;;;;;31.08;21.95;;;;;;;18.42;100.00;101590.47;6188725;23;20009;-88
2022/08/24 05:34:26;;;;;;;28.88;22.73;;;;;;;18.49;100.00;101596.63;6165466;23;20013;-87
2022/08/24 05:36:55;;;;;;;26.67;21.30;;;;;;;18.57;99.77;101601.72;6188306;23;20419;-87
2022/08/24 05:39:20;;;;;;;32.58;22.75;;;;;;;18.64;99.78;101596.03;6187547;23;20343;-88
2022/08/24 05:41:47;;;;;;;32.53;22.30;;;;;;;18.71;99.65;101601.38;6187404;23;20012;-88
2022/08/24 05:44:15;;;;;;;28.65;21.77;;;;;;;18.77;99.75;101601.19;6187945;23;20063;-88
2022/08/24 05:46:41;;;;;;;29.40;22.00;;;;;;;18.86;99.33;101598.88;6188787;23;20005;-88
2022/08/24 05:49:10;;;;;;;29.88;21.75;;;;;;;18.92;98.99;101595.09;6187763;23;20044;-88
2022/08/24 05:51:37;;;;;;;31.08;21.95;;;;;;;19.01;99.26;101598.25;6188649;23;20013;-88
2022/08/24 05:54:03;;;;;;;31.35;22.02;;;;;;;19.10;99.56;101595.91;6187594;23;20391;-89
2022/08/24 05:56:31;;;;;;;30.55;22.55;;;;;;;19.16;98.99;101591.31;6187417;23;20005;-91
2022/08/24 05:59:00;;;;;;;29.10;23.00;;;;;;;19.22;98.55;101596.63;6188147;23;20016;-88
2022/08/24 06:01:26;;;;;;;30.98;24.77;;;;;;;19.30;98.77;101592.59;6186940;23;20012;-89
2022/08/24 06:03:54;;;;;;;33.35;25.25;;;;;;;19.38;98.43;101594.88;6187840;23;20009;-88
2022/08/24 06:06:21;;;;;;;36.22;24.85;;;;;;;19.48;98.91;101599.69;6185266;23;20020;-89
2022/08/24 06:08:49;;;;;;;43.17;30.23;;;;;;;19.55;98.41;101594.81;6185753;23;20435;-89
2022/08/24 06:11:35;;;;;;;46.23;32.93;;;;;;;19.61;97.82;101601.22;6187132;23;20427;-88
2022/08/24 06:14:06;;;;;;;55.30;37.88;;;;;;;19.67;98.22;101608.44;6186013;23;20012;-89
2022/08/24 06:16:41;;;;;;;49.97;33.90;;;;;;;19.76;98.36;101614.31;6162267;23;20013;-88
2022/08/24 06:19:14;;;;;;;41.00;31.05;;;;;;;19.82;97.92;101609.72;6186290;23;20079;-88
2022/08/24 06:21:42;;;;;;;40.65;29.95;;;;;;;19.87;97.55;101613.38;6186914;23;20124;-88
2022/08/24 06:24:08;;;;;;;42.60;28.20;;;;;;;19.93;97.11;101619.75;6161048;23;20017;-89
2022/08/24 06:27:25;;;;;;;36.90;27.88;;;;;;;19.99;96.74;101615.97;6185702;23;20011;-89
2022/08/24 06:29:43;;;;;;;44.03;27.70;;;;;;;20.06;96.56;101621.25;6181537;23;20490;-89
2022/08/24 06:32:08;;;;;;;35.50;27.97;;;;;;;20.14;96.12;101621.63;6185641;23;20087;-89
2022/08/24 06:34:38;;;;;;;38.00;28.23;;;;;;;20.22;95.95;101625.00;6186389;23;20036;-88
2022/08/24 06:37:04;;;;;;;35.95;28.58;;;;;;;20.26;96.07;101615.94;6162275;23;20012;-89
2022/08/24 06:39:30;;;;;;;41.38;29.48;;;;;;;20.34;95.63;101628.41;6186744;23;20512;-89
2022/08/24 06:42:18;;;;;;;36.43;28.53;;;;;;;20.42;95.00;101627.09;6185561;23;20085;-89
2022/08/24 06:44:47;;;;;;;48.78;30.63;;;;;;;20.49;95.17;101619.41;6185259;23;20009;-88
2022/08/24 06:47:16;;;;;;;36.65;28.48;;;;;;;20.59;95.02;101635.22;6185898;23;20012;-88
2022/08/24 06:49:41;;;;;;;38.67;29.52;;;;;;;20.68;94.95;101629.00;6185130;23;20427;-89
2022/08/24 06:52:22;;;;;;;;;;;;;;;;;;;;;
2022/08/24 06:54:51;;;;;;;42.35;27.65;;;;;;;20.88;93.36;101626.66;6187490;23;20375;-89
2022/08/24 06:57:20;;;;;;;39.95;26.25;;;;;;;20.96;93.08;101629.72;6185548;23;20005;-89
2022/08/24 06:59:48;;;;;;;37.20;26.10;;;;;;;21.05;92.03;101631.97;6186504;23;20377;-89
2022/08/24 07:02:20;;;;;;;38.13;25.70;;;;;;;21.15;91.76;101640.31;6185663;23;20092;-89
2022/08/24 07:04:48;;;;;;;40.13;26.17;;;;;;;21.22;91.41;101634.56;6185243;23;20013;-89
2022/08/24 07:07:15;;;;;;;39.53;25.40;;;;;;;21.33;90.15;101641.78;6186956;23;20009;-89
2022/08/24 07:09:44;;;;;;;42.65;25.48;;;;;;;21.40;89.47;101642.38;6185062;23;20016;-89
2022/08/24 07:12:14;;;;;;;38.60;24.80;;;;;;;21.49;89.34;101646.25;6185287;23;20077;-90
2022/08/24 07:14:42;;;;;;;38.17;24.80;;;;;;;21.59;88.28;101640.00;6186379;23;20023;-89
2022/08/24 07:17:07;;;;;;;35.95;23.63;;;;;;;21.72;87.12;101645.00;6186206;23;20001;-89
2022/08/24 07:19:33;;;;;;;38.90;23.80;;;;;;;21.87;85.77;101652.50;6185664;23;20087;-89
2022/08/24 07:22:03;;;;;;;38.70;22.35;;;;;;;22.01;84.85;101651.97;6185545;23;20017;-89
2022/08/24 07:24:36;;;;;;;33.63;22.65;;;;;;;22.15;83.03;101644.81;6185524;23;20012;-89
2022/08/24 07:27:02;;;;;;;33.63;21.23;;;;;;;22.29;81.95;101650.63;6186032;23;20005;-89
2022/08/24 07:29:30;;;;;;;27.73;20.10;;;;;;;22.46;80.97;101646.81;6184547;23;20031;-89
2022/08/24 07:31:56;;;;;;;32.55;20.27;;;;;;;22.64;80.76;101646.25;6185477;23;20005;-89
2022/08/24 07:34:21;;;;;;;31.57;20.07;;;;;;;22.81;79.70;101650.66;6185389;23;20093;-89
2022/08/24 07:36:51;;;;;;;33.55;19.05;;;;;;;22.96;77.81;101647.88;6185577;23;20005;-90
2022/08/24 07:39:17;;;;;;;27.30;16.73;;;;;;;23.09;75.97;101647.28;6184962;23;20001;-89
2022/08/24 07:41:51;;;;;;;24.97;15.70;;;;;;;23.24;75.01;101645.63;6185060;23;20024;-89
2022/08/24 07:44:17;;;;;;;27.52;17.25;;;;;;;23.35;74.57;101640.88;6184912;23;20009;-89
2022/08/24 07:46:43;;;;;;;25.42;16.10;;;;;;;23.49;74.16;101636.38;6186187;23;20005;-90
2022/08/24 07:49:10;;;;;;;24.63;16.00;;;;;;;23.60;74.32;101640.75;6160090;23;20009;-89
2022/08/24 07:51:39;;;;;;;22.67;15.00;;;;;;;23.75;72.59;101641.78;6186622;23;20315;-90
2022/08/24 07:54:07;;;;;;;21.08;14.73;;;;;;;23.85;72.07;101644.50;6185168;23;20005;-89
2022/08/24 07:56:33;;;;;;;20.02;13.38;;;;;;;23.95;71.21;101657.50;6185451;23;20009;-90
2022/08/24 07:59:03;;;;;;;22.77;13.13;;;;;;;24.09;70.30;101649.38;6160525;23;20409;-89
2022/08/24 08:01:32;;;;;;;17.33;11.45;;;;;;;24.25;68.87;101645.38;6185186;23;20036;-90
2022/08/24 08:04:03;;;;;;;18.58;11.02;;;;;;;24.40;67.70;101651.94;6186237;23;20459;-89
2022/08/24 08:06:31;;;;;;;15.35;10.70;;;;;;;24.56;66.69;101644.31;6186401;23;20005;-90
2022/08/24 08:09:06;;;;;;;17.67;10.27;;;;;;;24.72;65.95;101645.03;6184525;23;20020;-94
2022/08/24 08:11:32;;;;;;;16.77;9.63;;;;;;;24.87;65.33;101653.19;6185278;23;20083;-89
2022/08/24 08:14:05;;;;;;;15.77;9.55;;;;;;;24.98;64.29;101653.91;6184605;23;20368;-88
2022/08/24 08:16:30;;;;;;;19.88;10.63;;;;;;;25.18;63.21;101652.88;6161500;23;20032;-90
2022/08/24 08:18:56;;;;;;;14.80;9.40;;;;;;;25.39;62.78;101654.31;6185024;23;20009;-90
2022/08/24 08:24:14;;;;;;;17.60;9.02;;;;;;;25.81;59.96;101651.81;6186682;23;20048;-90
2022/08/24 08:26:42;;;;;;;13.27;8.48;;;;;;;26.08;59.65;101661.47;6186257;23;20076;-89
2022/08/24 08:29:09;;;;;;;17.17;8.70;;;;;;;26.43;58.97;101656.47;6184499;23;20371;-89
2022/08/24 08:31:38;;;;;;;13.82;8.18;;;;;;;26.63;57.56;101649.72;6184197;23;20420;-90
2022/08/24 08:34:11;;;;;;;13.13;7.30;;;;;;;26.89;57.10;101650.13;6185086;23;20443;-90
2022/08/24 08:36:39;;;;;;;14.65;7.57;;;;;;;27.14;55.78;101648.00;6185215;23;20009;-90
2022/08/24 08:39:08;;;;;;;13.38;6.47;;;;;;;27.33;55.27;101647.91;6184233;23;20012;-89
2022/08/24 08:41:51;;;;;;;10.07;6.63;;;;;;;27.47;55.42;101653.47;6185686;23;20009;-91
2022/08/24 08:44:41;;;;;;;12.13;6.50;;;;;;;27.54;54.40;101647.50;6185314;23;20019;-90
2022/08/24 08:47:17;;;;;;;11.37;5.50;;;;;;;27.71;53.99;101653.25;6185099;23;20009;-90
2022/08/24 08:50:01;;;;;;;7.10;4.72;;;;;;;27.80;54.38;101651.34;6184913;23;20056;-89
2022/08/24 08:52:53;;;;;;;5.90;4.57;;;;;;;27.92;54.54;101653.59;6184825;23;20020;-92
2022/08/24 08:55:37;;;;;;;7.68;4.22;;;;;;;28.00;51.29;101649.25;6184876;23;20442;-91
2022/08/24 08:58:37;;;;;;;8.98;5.05;;;;;;;28.05;51.25;101657.53;6185210;23;20052;-90
2022/08/24 09:01:24;;;;;;;7.37;3.70;;;;;;;28.08;51.96;101650.47;6070720;23;20497;-89
2022/08/24 09:03:55;;;;;;;4.68;3.70;;;;;;;28.04;50.24;101655.06;6176744;23;20009;-89
2022/08/24 09:06:36;;;;;;;9.30;3.95;;;;;;;27.96;51.24;101649.06;6184424;23;20439;-89
2022/08/24 09:09:20;;;;;;;6.80;3.80;;;;;;;27.94;51.73;101656.88;6184498;23;20431;-89
2022/08/24 09:12:10;;;;;;;5.18;3.67;;;;;;;27.96;51.71;101657.41;6184235;23;20087;-89
2022/08/24 09:14:58;;;;;;;6.77;4.00;;;;;;;27.88;52.32;101657.34;6184221;23;20016;-88
2022/08/24 09:17:58;;;;;;;9.70;3.72;;;;;;;27.85;52.80;101658.78;6184695;23;20013;-88
2022/08/24 09:21:02;;;;;;;5.68;3.15;;;;;;;27.70;51.85;101654.38;6122029;23;20005;-88
2022/08/24 09:24:04;;;;;;;9.02;3.50;;;;;;;27.56;51.83;101653.56;6184571;23;20013;-89
2022/08/24 09:26:51;;;;;;;5.18;2.70;;;;;;;27.53;50.63;101651.41;6186606;23;20028;-89
2022/08/24 09:29:41;;;;;;;5.10;2.77;;;;;;;27.58;50.57;101659.63;6186162;23;20059;-89
2022/08/24 09:32:35;;;;;;;5.50;2.60;;;;;;;27.59;50.85;101656.56;6184880;23;20070;-89
2022/08/24 09:35:14;;;;;;;4.97;3.13;;;;;;;27.66;50.01;101656.13;6185340;23;20415;-89
2022/08/24 09:38:20;;;;;;;3.53;3.00;;;;;;;27.75;49.62;101654.25;6184842;23;20035;-89
2022/08/24 09:41:10;;;;;;;5.10;2.88;;;;;;;27.86;50.34;101651.22;6072260;23;20010;-89
2022/08/24 09:44:00;;;;;;;6.60;2.93;;;;;;;28.00;50.37;101660.41;6072379;23;20045;-89
2022/08/24 09:46:48;;;;;;;4.32;2.90;;;;;;;28.13;48.64;101658.72;6163959;23;20017;-89
2022/08/24 09:49:28;;;;;;;3.70;3.03;;;;;;;28.23;49.16;101657.63;6187395;23;20035;-88
2022/08/24 09:52:09;;;;;;;4.40;3.55;;;;;;;28.29;48.31;101659.19;6186778;23;20009;-89
2022/08/24 09:55:07;;;;;;;3.53;2.80;;;;;;;28.28;47.87;101649.97;6187644;23;20415;-89
2022/08/24 09:57:46;;;;;;;4.73;2.60;;;;;;;28.25;46.83;101658.16;6187184;23;20009;-89
2022/08/24 10:00:33;;;;;;;4.95;2.72;;;;;;;28.54;47.85;101646.56;6185796;23;20008;-89
2022/08/24 10:03:07;;;;;;;4.68;2.40;;;;;;;28.88;45.90;101651.53;6186620;23;20029;-89
2022/08/24 10:05:55;;;;;;;8.85;3.10;;;;;;;29.17;45.20;101654.94;6184406;23;20009;-89
2022/08/24 10:08:56;;;;;;;4.80;2.67;;;;;;;29.51;46.72;101657.06;6186537;23;20013;-85
2022/08/24 10:11:41;;;;;;;5.27;3.13;;;;;;;29.74;44.30;101651.34;6191002;23;20036;-89
2022/08/24 10:14:10;;;;;;;6.05;2.70;;;;;;;29.86;44.05;101645.94;6190459;23;20012;-89
2022/08/24 10:17:01;;;;;;;7.65;2.85;;;;;;;30.27;44.62;101644.63;6217381;23;20017;-88
2022/08/24 10:19:46;;;;;;;5.93;2.58;;;;;;;30.69;43.84;101641.25;6191195;23;20334;-88
2022/08/24 10:22:34;;;;;;;4.63;2.50;;;;;;;30.92;43.28;101639.06;6218111;23;20431;-88
2022/08/24 10:25:15;;;;;;;3.80;2.57;;;;;;;31.08;41.37;101642.16;6218928;23;20027;-89
2022/08/24 10:28:11;;;;;;;4.13;2.80;;;;;;;31.16;43.68;101634.84;6191057;23;20008;-88
2022/08/24 10:30:59;;;;;;;4.13;2.47;;;;;;;31.11;43.17;101640.66;6191191;23;20012;-88
2022/08/24 10:33:29;;;;;;;4.80;2.38;;;;;;;31.17;41.17;101628.09;6191029;23;20008;-88
2022/08/24 10:36:20;;;;;;;4.85;2.42;;;;;;;31.29;42.28;101636.59;6191038;23;20004;-88
2022/08/24 10:39:42;;;;;;;2.80;2.20;;;;;;;31.41;42.70;101630.25;6191660;23;20427;-89
2022/08/24 10:45:59;;;;;;;4.38;2.53;;;;;;;31.98;38.65;101630.88;6217502;23;20016;-88
2022/08/24 10:48:45;;;;;;;2.88;2.50;;;;;;;32.05;40.59;101627.50;6217312;23;20009;-89
2022/08/24 10:51:51;;;;;;;;;;;;;;;;;;;;;
2022/08/24 10:54:18;;;;;;;4.83;2.70;;;;;;;32.42;37.92;101620.09;6217903;23;20079;-88
2022/08/24 10:56:44;;;;;;;5.70;2.70;;;;;;;32.45;38.11;101619.38;6217048;23;20099;-89
2022/08/24 10:59:48;;;;;;;5.13;2.60;;;;;;;32.75;38.23;101618.44;6190608;23;20387;-89
2022/08/24 11:02:37;;;;;;;6.25;3.50;;;;;;;32.75;38.42;101624.03;6189775;23;20443;-89
2022/08/24 11:05:10;;;;;;;3.88;2.95;;;;;;;32.47;37.14;101619.84;6190483;23;20012;-89
2022/08/24 11:07:53;;;;;;;3.33;3.03;;;;;;;32.35;37.11;101615.03;6166137;23;20009;-89
2022/08/24 11:10:36;;;;;;;5.95;3.45;;;;;;;32.56;37.04;101608.53;6189973;23;20021;-89
2022/08/24 11:13:17;;;;;;;3.30;3.00;;;;;;;32.74;38.91;101611.97;6191215;23;20048;-89
2022/08/24 11:15:57;;;;;;;7.20;3.10;;;;;;;33.00;36.56;101597.59;6190339;23;20012;-88
2022/08/24 11:18:25;;;;;;;3.63;3.03;;;;;;;33.49;35.85;101598.75;6217173;23;20004;-88
2022/08/24 11:20:53;;;;;;;3.63;3.00;;;;;;;34.82;34.71;101605.31;6190243;23;20010;-89
2022/08/24 11:23:35;;;;;;;4.47;2.80;;;;;;;37.26;32.27;101600.19;6216685;23;20004;-89
2022/08/24 11:26:18;;;;;;;3.63;2.77;;;;;;;38.49;28.70;101590.38;6216361;23;20001;-89
2022/08/24 11:28:48;;;;;;;3.28;2.97;;;;;;;39.45;26.90;101600.81;6190565;23;20000;-89
2022/08/24 11:31:41;;;;;;;3.97;2.88;;;;;;;40.40;28.86;101585.78;6190481;23;20066;-89
2022/08/24 11:34:20;;;;;;;4.88;3.05;;;;;;;40.72;25.99;101582.97;6185452;23;20009;-88
2022/08/24 11:36:48;;;;;;;4.70;3.40;;;;;;;42.19;23.82;101573.13;6190599;23;20012;-88
2022/08/24 11:39:21;;;;;;;3.93;3.40;;;;;;;42.41;23.63;101576.63;6190350;23;20036;-89
2022/08/24 11:41:56;;;;;;;5.05;3.67;;;;;;;42.86;24.06;101581.56;6189967;23;20012;-89
2022/08/24 11:44:21;;;;;;;4.55;3.75;;;;;;;44.19;20.31;101573.44;6189757;23;20027;-90
2022/08/24 11:47:19;;;;;;;3.83;3.37;;;;;;;45.91;22.30;101564.91;6189558;23;20005;-88
2022/08/24 11:49:57;;;;;;;7.05;4.43;;;;;;;45.06;19.31;101569.91;6158937;23;20023;-88
2022/08/24 11:52:53;;;;;;;4.97;4.32;;;;;;;43.26;20.95;101566.88;6191043;23;20095;-88